createdAt,value
2022-12-25T00:02:01.616Z,11.60
2022-12-25T00:04:28.373Z,11.60
2022-12-25T00:06:55.724Z,11.50
2022-12-25T00:09:22.553Z,11.50
2022-12-25T00:11:49.349Z,11.40
2022-12-25T00:14:16.124Z,11.40
2022-12-25T00:16:42.979Z,11.40
2022-12-25T00:19:09.737Z,11.30
2022-12-25T00:21:36.474Z,11.30
2022-12-25T00:24:03.619Z,11.30
2022-12-25T00:26:30.471Z,11.30
2022-12-25T00:28:57.766Z,11.20
2022-12-25T00:31:25.163Z,11.20
2022-12-25T00:33:52.219Z,11.20
2022-12-25T00:36:20.750Z,11.10
2022-12-25T00:38:47.528Z,11.10
2022-12-25T00:41:16.340Z,11.00
2022-12-25T00:43:43.318Z,11.00
2022-12-25T00:46:11.460Z,10.90
2022-12-25T00:48:38.475Z,10.90
2022-12-25T00:51:06.945Z,10.90
2022-12-25T00:53:33.919Z,10.90
2022-12-25T00:56:03.239Z,11.00
2022-12-25T00:58:30.987Z,11.10
2022-12-25T01:00:57.899Z,11.10
2022-12-25T01:03:24.957Z,11.20
2022-12-25T01:06:01.839Z,11.20
2022-12-25T01:08:29.977Z,11.20
2022-12-25T01:10:58.426Z,11.30
2022-12-25T01:13:25.373Z,11.30
2022-12-25T01:15:52.634Z,11.30
2022-12-25T01:18:20.035Z,11.30
2022-12-25T01:20:46.936Z,11.30
2022-12-25T01:23:14.045Z,11.40
2022-12-25T01:25:40.906Z,11.30
2022-12-25T01:28:07.850Z,11.30
2022-12-25T01:30:35.624Z,11.30
2022-12-25T01:33:02.523Z,11.20
2022-12-25T01:35:29.320Z,11.20
2022-12-25T01:37:56.097Z,11.10
2022-12-25T01:40:22.945Z,11.10
2022-12-25T01:42:49.759Z,11.10
2022-12-25T01:45:40.482Z,11.00
2022-12-25T01:48:11.148Z,11.00
2022-12-25T01:50:38.064Z,10.90
2022-12-25T01:53:04.842Z,11.00
2022-12-25T01:55:31.627Z,11.00
2022-12-25T01:57:58.414Z,11.00
2022-12-25T02:00:25.170Z,11.00
2022-12-25T02:02:52.135Z,11.00
2022-12-25T02:05:30.416Z,11.00
2022-12-25T02:08:02.078Z,11.00
2022-12-25T02:10:28.941Z,11.00
2022-12-25T02:12:55.732Z,11.00
2022-12-25T02:15:24.886Z,11.00
2022-12-25T02:18:00.502Z,11.00
2022-12-25T02:20:33.335Z,10.90
2022-12-25T02:23:13.971Z,10.90
2022-12-25T02:25:59.343Z,10.90
2022-12-25T02:28:46.205Z,10.90
2022-12-25T02:31:48.263Z,10.90
2022-12-25T02:34:26.240Z,10.80
2022-12-25T02:37:10.770Z,10.80
2022-12-25T02:39:58.921Z,10.80
2022-12-25T02:42:51.071Z,10.80
2022-12-25T02:45:53.674Z,10.90
2022-12-25T02:48:40.259Z,10.90
2022-12-25T02:51:28.925Z,11.00
2022-12-25T02:54:15.048Z,11.00
2022-12-25T02:57:01.462Z,11.00
2022-12-25T02:59:47.321Z,11.00
2022-12-25T03:02:33.577Z,11.10
2022-12-25T03:05:19.773Z,11.10
2022-12-25T03:07:46.641Z,11.10
2022-12-25T03:10:34.003Z,11.10
2022-12-25T03:13:03.594Z,11.10
2022-12-25T03:15:48.839Z,11.10
2022-12-25T03:18:17.039Z,11.10
2022-12-25T03:21:02.327Z,11.00
2022-12-25T03:23:50.187Z,11.00
2022-12-25T03:26:35.817Z,11.00
2022-12-25T03:29:02.639Z,11.00
2022-12-25T03:31:39.172Z,11.00
2022-12-25T03:34:34.034Z,10.90
2022-12-25T03:37:20.310Z,11.00
2022-12-25T03:39:55.504Z,10.90
2022-12-25T03:42:45.349Z,10.90
2022-12-25T03:45:42.254Z,10.90
2022-12-25T03:48:27.405Z,10.90
2022-12-25T03:51:18.464Z,10.90
2022-12-25T03:54:06.545Z,10.90
2022-12-25T03:56:52.034Z,10.90
2022-12-25T03:59:38.249Z,10.90
2022-12-25T04:02:23.867Z,10.90
2022-12-25T04:05:09.525Z,10.90
2022-12-25T04:07:54.794Z,10.90
2022-12-25T04:10:40.006Z,10.90
2022-12-25T04:13:25.244Z,11.00
2022-12-25T04:16:11.271Z,11.00
2022-12-25T04:18:56.589Z,11.00
2022-12-25T04:21:42.543Z,11.00
2022-12-25T04:24:28.891Z,11.00
2022-12-25T04:27:14.251Z,11.10
2022-12-25T04:29:59.628Z,11.10
2022-12-25T04:32:44.882Z,11.10
2022-12-25T04:35:30.442Z,11.20
2022-12-25T04:37:57.235Z,11.20
2022-12-25T04:40:23.989Z,11.20
2022-12-25T04:42:51.473Z,11.20
2022-12-25T04:45:18.379Z,11.20
2022-12-25T04:47:45.180Z,11.20
2022-12-25T04:50:11.971Z,11.30
2022-12-25T04:52:39.430Z,11.30
2022-12-25T04:55:06.788Z,11.40
2022-12-25T04:57:33.620Z,11.30
2022-12-25T05:00:00.461Z,11.40
2022-12-25T05:02:27.359Z,11.40
2022-12-25T05:04:54.321Z,11.40
2022-12-25T05:07:21.153Z,11.40
2022-12-25T05:09:47.936Z,11.40
2022-12-25T05:12:14.668Z,11.40
2022-12-25T05:14:41.507Z,11.40
2022-12-25T05:17:08.372Z,11.40
2022-12-25T05:19:35.226Z,11.30
2022-12-25T05:22:02.098Z,11.30
2022-12-25T05:24:28.938Z,11.30
2022-12-25T05:26:55.714Z,11.30
2022-12-25T05:29:22.482Z,11.30
2022-12-25T05:31:49.368Z,11.30
2022-12-25T05:34:16.218Z,11.30
2022-12-25T05:36:43.048Z,11.30
2022-12-25T05:39:09.849Z,11.30
2022-12-25T05:41:36.607Z,11.30
2022-12-25T05:44:03.487Z,11.30
2022-12-25T05:46:30.376Z,11.30
2022-12-25T05:48:57.164Z,11.30
2022-12-25T05:51:25.173Z,11.20
2022-12-25T05:53:52.138Z,11.30
2022-12-25T05:56:18.933Z,11.30
2022-12-25T05:58:45.686Z,11.20
2022-12-25T06:01:14.083Z,11.20
2022-12-25T06:03:40.867Z,11.20
2022-12-25T06:06:08.319Z,11.20
2022-12-25T06:08:35.226Z,11.20
2022-12-25T06:11:05.742Z,11.20
2022-12-25T06:13:33.095Z,11.20
2022-12-25T06:15:59.952Z,11.20
2022-12-25T06:18:26.886Z,11.20
2022-12-25T06:20:53.760Z,11.20
2022-12-25T06:23:20.531Z,11.20
2022-12-25T06:25:47.363Z,11.20
2022-12-25T06:28:14.126Z,11.20
2022-12-25T06:30:40.899Z,11.20
2022-12-25T06:33:07.678Z,11.20
2022-12-25T06:35:34.528Z,11.20
2022-12-25T06:38:01.298Z,11.20
2022-12-25T06:40:28.172Z,11.20
2022-12-25T06:42:54.963Z,11.20
2022-12-25T06:45:21.757Z,11.20
2022-12-25T06:47:48.560Z,11.20
2022-12-25T06:50:15.355Z,11.20
2022-12-25T06:52:42.191Z,11.20
2022-12-25T06:55:09.390Z,11.20
2022-12-25T06:57:36.277Z,11.20
2022-12-25T07:00:03.613Z,11.20
2022-12-25T07:02:30.562Z,11.20
2022-12-25T07:04:57.397Z,11.20
2022-12-25T07:07:24.240Z,11.20
2022-12-25T07:09:51.062Z,11.20
2022-12-25T07:12:23.569Z,11.20
2022-12-25T07:14:53.831Z,11.20
2022-12-25T07:17:20.768Z,11.30
2022-12-25T07:19:47.608Z,11.30
2022-12-25T07:22:14.655Z,11.30
2022-12-25T07:24:41.474Z,11.20
2022-12-25T07:27:08.481Z,11.20
2022-12-25T07:29:35.284Z,11.30
2022-12-25T07:32:02.166Z,11.20
2022-12-25T07:34:29.012Z,11.30
2022-12-25T07:36:55.842Z,11.30
2022-12-25T07:39:23.829Z,11.40
2022-12-25T07:41:51.214Z,11.40
2022-12-25T07:44:18.202Z,11.40
2022-12-25T07:46:45.131Z,11.40
2022-12-25T07:49:12.120Z,11.40
2022-12-25T07:51:39.041Z,11.40
2022-12-25T07:54:05.904Z,11.50
2022-12-25T07:56:32.786Z,11.50
2022-12-25T07:58:59.653Z,11.50
2022-12-25T08:01:26.938Z,11.50
2022-12-25T08:03:55.564Z,11.50
2022-12-25T08:06:23.323Z,11.60
2022-12-25T08:08:50.096Z,11.60
2022-12-25T08:11:16.933Z,11.60
2022-12-25T08:13:43.732Z,11.60
2022-12-25T08:16:10.697Z,11.60
2022-12-25T08:18:38.118Z,11.60
2022-12-25T08:21:09.846Z,11.60
2022-12-25T08:23:38.128Z,11.60
2022-12-25T08:26:06.011Z,11.60
2022-12-25T08:28:33.219Z,11.60
2022-12-25T08:31:00.101Z,11.60
2022-12-25T08:33:27.037Z,11.60
2022-12-25T08:35:53.850Z,11.60
2022-12-25T08:38:20.676Z,11.60
2022-12-25T08:40:47.494Z,11.50
2022-12-25T08:43:14.240Z,11.50
2022-12-25T08:45:41.068Z,11.50
2022-12-25T08:48:07.877Z,11.50
2022-12-25T08:50:34.618Z,11.50
2022-12-25T08:53:01.488Z,11.40
2022-12-25T08:55:28.325Z,11.50
2022-12-25T08:57:55.114Z,11.50
2022-12-25T09:00:22.050Z,11.50
2022-12-25T09:02:48.929Z,11.50
2022-12-25T09:05:15.907Z,11.50
2022-12-25T09:07:42.699Z,11.50
2022-12-25T09:10:09.971Z,11.60
2022-12-25T09:12:36.738Z,11.60
2022-12-25T09:15:04.774Z,11.60
2022-12-25T09:17:32.235Z,11.70
2022-12-25T09:19:59.205Z,11.70
2022-12-25T09:22:26.029Z,11.70
2022-12-25T09:24:52.817Z,11.80
2022-12-25T09:27:19.648Z,11.80
2022-12-25T09:29:46.482Z,11.80
2022-12-25T09:32:13.318Z,11.80
2022-12-25T09:34:40.062Z,11.80
2022-12-25T09:37:06.818Z,11.80
2022-12-25T09:39:33.609Z,11.80
2022-12-25T09:42:02.545Z,11.80
2022-12-25T09:44:35.062Z,11.80
2022-12-25T09:47:04.657Z,11.80
2022-12-25T09:49:48.927Z,11.80
2022-12-25T09:52:20.817Z,11.80
2022-12-25T09:55:02.393Z,11.80
2022-12-25T09:57:29.190Z,11.80
2022-12-25T09:59:55.961Z,11.90
2022-12-25T10:02:26.251Z,12.10
2022-12-25T10:05:17.413Z,12.30
2022-12-25T10:07:49.965Z,12.50
2022-12-25T10:10:28.922Z,12.80
2022-12-25T10:13:01.196Z,13.00
2022-12-25T10:15:33.963Z,13.00
2022-12-25T10:18:27.356Z,13.00
2022-12-25T10:20:57.796Z,13.00
2022-12-25T10:23:34.556Z,12.90
2022-12-25T10:26:01.558Z,12.80
2022-12-25T10:28:44.239Z,12.80
2022-12-25T10:31:18.706Z,12.70
2022-12-25T10:33:45.587Z,12.60
2022-12-25T10:36:14.058Z,12.60
2022-12-25T10:38:40.863Z,12.50
2022-12-25T10:41:34.409Z,12.50
2022-12-25T10:44:04.006Z,12.50
2022-12-25T10:46:30.977Z,12.50
2022-12-25T10:48:59.407Z,12.50
2022-12-25T10:51:37.224Z,12.40
2022-12-25T10:54:18.763Z,12.40
2022-12-25T10:57:09.782Z,12.40
2022-12-25T10:59:43.478Z,12.40
2022-12-25T11:02:27.440Z,12.40
2022-12-25T11:05:01.491Z,12.40
2022-12-25T11:07:28.410Z,12.50
2022-12-25T11:10:04.678Z,12.50
2022-12-25T11:12:42.872Z,12.50
2022-12-25T11:15:37.705Z,12.60
2022-12-25T11:18:16.772Z,12.60
2022-12-25T11:20:49.483Z,12.60
2022-12-25T11:23:20.271Z,12.60
2022-12-25T11:26:03.374Z,12.60
2022-12-25T11:28:31.538Z,12.60
2022-12-25T11:31:06.643Z,12.60
2022-12-25T11:33:37.130Z,12.60
2022-12-25T11:36:09.365Z,12.80
2022-12-25T11:38:36.154Z,12.80
2022-12-25T11:41:03.233Z,12.90
2022-12-25T11:43:30.004Z,13.00
2022-12-25T11:46:05.032Z,13.00
2022-12-25T11:48:37.053Z,13.10
2022-12-25T11:51:03.865Z,13.20
2022-12-25T11:53:39.919Z,13.30
2022-12-25T11:56:18.199Z,13.40
2022-12-25T11:58:52.902Z,13.50
2022-12-25T12:01:44.604Z,13.50
2022-12-25T12:04:40.302Z,13.60
2022-12-25T12:07:13.814Z,13.70
2022-12-25T12:10:02.309Z,13.90
2022-12-25T12:12:55.473Z,14.00
2022-12-25T12:15:29.009Z,14.40
2022-12-25T12:17:55.953Z,14.80
2022-12-25T12:20:34.528Z,15.30
2022-12-25T12:23:03.293Z,15.70
2022-12-25T12:25:30.273Z,15.90
2022-12-25T12:28:05.296Z,16.00
2022-12-25T12:30:34.660Z,15.90
2022-12-25T12:33:03.509Z,15.70
2022-12-25T12:35:35.598Z,15.40
2022-12-25T12:38:07.788Z,15.10
2022-12-25T12:40:38.851Z,14.80
2022-12-25T12:43:06.378Z,14.60
2022-12-25T12:45:35.077Z,14.40
2022-12-25T12:48:02.096Z,14.30
2022-12-25T12:50:42.092Z,14.10
2022-12-25T12:53:24.257Z,14.00
2022-12-25T12:55:51.527Z,13.90
2022-12-25T12:58:35.615Z,13.80
2022-12-25T13:01:31.070Z,13.70
2022-12-25T13:04:16.688Z,13.70
2022-12-25T13:07:02.989Z,13.60
2022-12-25T13:09:45.384Z,13.40
2022-12-25T13:12:12.456Z,13.30
2022-12-25T13:14:43.837Z,13.30
2022-12-25T13:17:10.649Z,13.30
2022-12-25T13:19:37.540Z,13.20
2022-12-25T13:22:05.610Z,13.20
2022-12-25T13:24:34.102Z,13.20
2022-12-25T13:27:01.159Z,13.30
2022-12-25T13:29:38.546Z,13.30
2022-12-25T13:32:07.179Z,13.30
2022-12-25T13:34:41.923Z,13.40
2022-12-25T13:37:29.947Z,13.40
2022-12-25T13:40:00.572Z,13.40
2022-12-25T13:42:31.406Z,13.40
2022-12-25T13:45:06.377Z,13.30
2022-12-25T13:47:34.863Z,13.20
2022-12-25T13:50:21.223Z,13.10
2022-12-25T13:52:47.972Z,13.10
2022-12-25T13:55:18.727Z,13.00
2022-12-25T13:57:55.258Z,12.90
2022-12-25T14:00:23.440Z,12.90
2022-12-25T14:02:52.023Z,12.80
2022-12-25T14:05:28.090Z,12.70
2022-12-25T14:07:55.955Z,12.70
2022-12-25T14:10:24.344Z,12.60
2022-12-25T14:12:51.332Z,12.60
2022-12-25T14:15:22.193Z,12.50
2022-12-25T14:17:49.676Z,12.50
2022-12-25T14:20:56.644Z,12.60
2022-12-25T14:23:23.390Z,12.50
2022-12-25T14:25:50.187Z,12.60
2022-12-25T14:28:21.927Z,12.60
2022-12-25T14:30:48.831Z,12.70
2022-12-25T14:33:17.650Z,12.70
2022-12-25T14:35:44.746Z,12.60
2022-12-25T14:38:26.707Z,12.60
2022-12-25T14:41:00.185Z,12.60
2022-12-25T14:43:27.610Z,12.60
2022-12-25T14:45:59.217Z,12.50
2022-12-25T14:48:28.066Z,12.50
2022-12-25T14:51:04.836Z,12.50
2022-12-25T14:53:38.091Z,12.50
2022-12-25T14:56:05.215Z,12.40
2022-12-25T14:58:32.744Z,12.40
2022-12-25T15:01:01.458Z,12.40
2022-12-25T15:03:37.800Z,12.40
2022-12-25T15:06:19.146Z,12.40
2022-12-25T15:08:58.175Z,12.30
2022-12-25T15:11:25.044Z,12.30
2022-12-25T15:13:51.898Z,12.30
2022-12-25T15:16:22.672Z,12.20
2022-12-25T15:18:49.553Z,12.20
2022-12-25T15:21:17.828Z,12.10
2022-12-25T15:23:44.659Z,12.00
2022-12-25T15:26:14.758Z,12.00
2022-12-25T15:28:41.823Z,12.00
2022-12-25T15:31:25.242Z,11.90
2022-12-25T15:33:52.941Z,11.90
2022-12-25T15:36:19.724Z,11.80
2022-12-25T15:38:46.550Z,11.80
2022-12-25T15:41:33.353Z,11.80
2022-12-25T15:44:00.755Z,11.70
2022-12-25T15:46:27.623Z,11.70
2022-12-25T15:48:54.411Z,11.60
2022-12-25T15:51:21.417Z,11.60
2022-12-25T15:53:48.244Z,11.50
2022-12-25T15:56:15.177Z,11.50
2022-12-25T15:58:42.014Z,11.40
2022-12-25T16:01:17.633Z,11.40
2022-12-25T16:03:44.632Z,11.30
2022-12-25T16:06:18.230Z,11.30
2022-12-25T16:08:45.398Z,11.20
2022-12-25T16:11:12.194Z,11.20
2022-12-25T16:13:39.074Z,11.10
2022-12-25T16:16:06.936Z,11.10
2022-12-25T16:18:33.788Z,11.10
2022-12-25T16:21:00.537Z,11.00
2022-12-25T16:23:27.314Z,11.00
2022-12-25T16:25:54.101Z,11.00
2022-12-25T16:28:20.908Z,11.00
2022-12-25T16:30:47.902Z,11.00
2022-12-25T16:33:15.343Z,11.00
2022-12-25T16:35:42.307Z,11.00
2022-12-25T16:38:11.164Z,11.00
2022-12-25T16:40:37.973Z,11.00
2022-12-25T16:43:04.720Z,11.00
2022-12-25T16:45:31.555Z,10.90
2022-12-25T16:47:58.317Z,10.90
2022-12-25T16:50:25.073Z,10.90
2022-12-25T16:52:52.236Z,10.90
2022-12-25T16:55:19.016Z,10.90
2022-12-25T16:57:48.304Z,10.90
2022-12-25T17:00:15.475Z,10.90
2022-12-25T17:02:42.519Z,10.90
2022-12-25T17:05:09.727Z,10.90
2022-12-25T17:07:37.342Z,10.90
2022-12-25T17:10:05.636Z,10.90
2022-12-25T17:12:33.242Z,11.00
2022-12-25T17:15:00.048Z,11.00
2022-12-25T17:17:26.877Z,11.00
2022-12-25T17:19:53.747Z,11.00
2022-12-25T17:22:20.562Z,11.00
2022-12-25T17:24:47.323Z,11.10
2022-12-25T17:27:14.089Z,11.10
2022-12-25T17:29:41.116Z,11.10
2022-12-25T17:32:08.114Z,11.10
2022-12-25T17:34:35.105Z,11.20
2022-12-25T17:37:01.937Z,11.20
2022-12-25T17:39:28.885Z,11.20
2022-12-25T17:41:55.811Z,11.20
2022-12-25T17:44:22.703Z,11.20
2022-12-25T17:46:50.479Z,11.20
2022-12-25T17:49:19.311Z,11.20
2022-12-25T17:51:46.254Z,11.20
2022-12-25T17:54:13.227Z,11.20
2022-12-25T17:56:40.016Z,11.20
2022-12-25T17:59:08.296Z,11.20
2022-12-25T18:01:36.606Z,11.10
2022-12-25T18:04:03.919Z,11.00
2022-12-25T18:06:30.691Z,11.00
2022-12-25T18:08:57.589Z,11.00
2022-12-25T18:11:29.003Z,10.90
2022-12-25T18:13:57.970Z,10.90
2022-12-25T18:16:25.349Z,10.90
2022-12-25T18:18:52.974Z,10.90
2022-12-25T18:21:21.006Z,10.80
2022-12-25T18:23:47.884Z,10.80
2022-12-25T18:26:14.929Z,10.80
2022-12-25T18:28:42.718Z,10.80
2022-12-25T18:31:10.503Z,10.80
2022-12-25T18:33:37.317Z,10.80
2022-12-25T18:36:04.323Z,10.80
2022-12-25T18:38:31.140Z,10.80
2022-12-25T18:40:58.045Z,10.80
2022-12-25T18:43:53.185Z,10.80
2022-12-25T18:46:11.846Z,10.80
2022-12-25T18:48:38.759Z,10.80
2022-12-25T18:51:11.102Z,10.80
2022-12-25T18:53:38.048Z,10.80
2022-12-25T18:56:23.828Z,10.80
2022-12-25T18:58:50.596Z,10.70
2022-12-25T19:01:21.967Z,10.70
2022-12-25T19:03:49.437Z,10.70
2022-12-25T19:06:21.557Z,10.70
2022-12-25T19:08:48.486Z,10.70
2022-12-25T19:11:15.653Z,10.60
2022-12-25T19:13:42.631Z,10.70
2022-12-25T19:16:09.642Z,10.60
2022-12-25T19:18:36.790Z,10.70
2022-12-25T19:21:05.000Z,10.60
2022-12-25T19:23:31.798Z,10.60
2022-12-25T19:25:58.572Z,10.60
2022-12-25T19:28:25.553Z,10.60
2022-12-25T19:30:53.903Z,10.60
2022-12-25T19:33:21.465Z,10.60
2022-12-25T19:35:49.018Z,10.50
2022-12-25T19:38:16.021Z,10.50
2022-12-25T19:41:00.128Z,10.40
2022-12-25T19:43:32.065Z,10.50
2022-12-25T19:45:59.552Z,10.40
2022-12-25T19:48:26.390Z,10.40
2022-12-25T19:50:53.410Z,10.40
2022-12-25T19:53:23.132Z,10.40
2022-12-25T19:55:53.034Z,10.40
2022-12-25T19:58:20.662Z,10.30
2022-12-25T20:00:57.913Z,10.30
2022-12-25T20:03:25.167Z,10.20
2022-12-25T20:05:52.098Z,10.20
2022-12-25T20:08:19.657Z,10.10
2022-12-25T20:10:46.448Z,10.10
2022-12-25T20:13:13.249Z,10.10
2022-12-25T20:15:40.121Z,10.10
2022-12-25T20:18:06.890Z,10.10
2022-12-25T20:20:33.613Z,10.10
2022-12-25T20:23:00.502Z,10.10
2022-12-25T20:25:27.378Z,10.10
2022-12-25T20:27:54.173Z,10.20
2022-12-25T20:30:20.919Z,10.20
2022-12-25T20:32:50.587Z,10.20
2022-12-25T20:35:17.762Z,10.20
2022-12-25T20:37:44.553Z,10.20
2022-12-25T20:40:12.489Z,10.30
2022-12-25T20:42:39.307Z,10.20
2022-12-25T20:45:07.630Z,10.20
2022-12-25T20:47:34.895Z,10.20
2022-12-25T20:50:01.699Z,10.20
2022-12-25T20:52:28.503Z,10.20
2022-12-25T20:54:55.259Z,10.20
2022-12-25T20:57:22.066Z,10.20
2022-12-25T20:59:49.131Z,10.20
2022-12-25T21:02:34.150Z,10.20
2022-12-25T21:05:03.265Z,10.20
2022-12-25T21:07:30.062Z,10.20
2022-12-25T21:09:56.818Z,10.20
2022-12-25T21:12:23.553Z,10.20
2022-12-25T21:14:50.336Z,10.20
2022-12-25T21:17:17.417Z,10.30
2022-12-25T21:19:44.233Z,10.30
2022-12-25T21:22:11.044Z,10.30
2022-12-25T21:24:37.921Z,10.30
2022-12-25T21:27:04.717Z,10.30
2022-12-25T21:29:31.569Z,10.40
2022-12-25T21:32:16.924Z,10.40
2022-12-25T21:34:44.425Z,10.30
2022-12-25T21:37:11.172Z,10.30
2022-12-25T21:39:38.154Z,10.20
2022-12-25T21:42:05.439Z,10.20
2022-12-25T21:44:32.234Z,10.20
2022-12-25T21:46:59.043Z,10.20
2022-12-25T21:49:44.360Z,10.30
2022-12-25T21:52:11.148Z,10.30
2022-12-25T21:54:38.032Z,10.30
2022-12-25T21:57:04.830Z,10.30
2022-12-25T21:59:31.680Z,10.30
2022-12-25T22:01:59.471Z,10.30
2022-12-25T22:04:26.403Z,10.30
2022-12-25T22:07:11.731Z,10.30
2022-12-25T22:09:38.636Z,10.20
2022-12-25T22:12:27.389Z,10.20
2022-12-25T22:15:02.755Z,10.20
2022-12-25T22:17:52.955Z,10.20
2022-12-25T22:20:26.114Z,10.10
2022-12-25T22:22:53.068Z,10.10
2022-12-25T22:25:20.257Z,10.10
2022-12-25T22:27:47.412Z,10.00
2022-12-25T22:30:16.078Z,10.00
2022-12-25T22:32:43.071Z,9.90
2022-12-25T22:35:10.385Z,9.90
2022-12-25T22:37:37.945Z,9.90
2022-12-25T22:40:05.992Z,9.90
2022-12-25T22:42:32.905Z,9.90
2022-12-25T22:44:59.672Z,9.90
2022-12-25T22:47:26.477Z,9.90
2022-12-25T22:49:53.319Z,9.90
2022-12-25T22:52:20.106Z,9.90
2022-12-25T22:54:46.876Z,9.90
2022-12-25T22:57:13.675Z,9.90
2022-12-25T22:59:40.536Z,9.90
2022-12-25T23:02:07.400Z,9.90
2022-12-25T23:04:34.295Z,9.90
2022-12-25T23:07:01.933Z,9.90
2022-12-25T23:09:28.740Z,9.90
2022-12-25T23:11:57.155Z,9.90
2022-12-25T23:14:40.071Z,9.90
2022-12-25T23:17:28.646Z,9.80
2022-12-25T23:20:14.863Z,9.80
2022-12-25T23:23:00.438Z,9.80
2022-12-25T23:25:45.705Z,9.80
2022-12-25T23:28:12.988Z,9.80
2022-12-25T23:30:39.745Z,9.80
2022-12-25T23:33:07.575Z,9.80
2022-12-25T23:35:34.441Z,9.90
2022-12-25T23:38:01.193Z,9.90
2022-12-25T23:40:27.996Z,9.80
2022-12-25T23:42:54.864Z,9.80
2022-12-25T23:45:21.817Z,9.80
2022-12-25T23:47:49.596Z,9.80
2022-12-25T23:50:16.459Z,9.80
2022-12-25T23:52:43.192Z,9.90
2022-12-25T23:55:10.103Z,9.90
2022-12-25T23:57:36.912Z,9.90
